Time;durP1;ratioP1;P1;durP2;ratioP2;P2;SDS_P1;SDS_P2;PMS_P1;PMS_P2;Temp;Humidity;BMP_temperature;BMP_pressure;BME280_temperature;BME280_humidity;BME280_pressure;Samples;Min_cycle;Max_cycle;Signal;HPM_P1;HPM_P2
2024/02/17 06:06:57;;;;;;;5.05;1.15;;;;;;;;;;1389111;24;21492;-83
2024/02/17 06:09:24;;;;;;;2.10;1.08;;;;;;;;;;4838903;29;20046;-83
2024/02/17 06:11:50;;;;;;;3.65;0.63;;;;;;;;;;4833745;29;20103;-82
2024/02/17 06:14:16;;;;;;;2.55;0.85;;;;;;;;;;4858198;29;20049;-82
2024/02/17 06:16:42;;;;;;;2.95;0.90;;;;;;;;;;4838111;29;20088;-82
2024/02/17 06:21:58;;;;;;;3.13;1.27;;;;;;;;;;4858791;29;20519;-84
2024/02/17 06:24:24;;;;;;;2.75;1.30;;;;;;;;;;4841923;29;20468;-83
2024/02/17 06:26:50;;;;;;;1.75;0.77;;;;;;;;;;4840344;29;20053;-83
2024/02/17 06:29:16;;;;;;;3.03;1.58;;;;;;;;;;4857372;29;20551;-82
2024/02/17 06:31:46;;;;;;;9.90;2.05;;;;;;;;;;4857528;29;20124;-83
2024/02/17 06:34:12;;;;;;;4.40;1.65;;;;;;;;;;4857962;29;20042;-82
2024/02/17 06:36:38;;;;;;;4.70;2.00;;;;;;;;;;4856790;29;20149;-82
2024/02/17 06:39:04;;;;;;;6.50;1.40;;;;;;;;;;4846181;29;20057;-83
2024/02/17 06:41:30;;;;;;;5.88;1.98;;;;;;;;;;4837832;29;20044;-82
2024/02/17 06:43:56;;;;;;;3.40;1.15;;;;;;;;;;4855942;29;20141;-82
2024/02/17 06:46:22;;;;;;;3.75;1.02;;;;;;;;;;4846784;29;20129;-83
2024/02/17 06:48:49;;;;;;;3.60;1.52;;;;;;;;;;4838018;29;20115;-82
2024/02/17 06:51:16;;;;;;;13.88;1.88;;;;;;;;;;4840915;29;20033;-81
2024/02/17 06:53:43;;;;;;;1.48;0.70;;;;;;;;;;4837757;29;20054;-81
2024/02/17 06:56:09;;;;;;;5.70;0.82;;;;;;;;;;4840032;29;20046;-81
2024/02/17 06:58:35;;;;;;;7.55;1.50;;;;;;;;;;4856531;29;20586;-80
2024/02/17 07:01:01;;;;;;;3.45;1.02;;;;;;;;;;4858247;29;20037;-82
2024/02/17 07:03:28;;;;;;;3.83;1.30;;;;;;;;;;4849415;29;20069;-80
2024/02/17 07:05:55;;;;;;;3.58;1.65;;;;;;;;;;4857461;29;20579;-80
2024/02/17 07:08:21;;;;;;;4.28;1.10;;;;;;;;;;4856427;29;20408;-82
2024/02/17 07:10:47;;;;;;;5.75;1.65;;;;;;;;;;4853766;29;20109;-81
2024/02/17 07:13:13;;;;;;;2.78;0.88;;;;;;;;;;4853374;29;20053;-81
2024/02/17 07:15:39;;;;;;;4.60;1.60;;;;;;;;;;4839254;29;20038;-81
2024/02/17 07:18:05;;;;;;;4.05;1.55;;;;;;;;;;4832974;29;20161;-84
2024/02/17 07:20:32;;;;;;;2.60;0.88;;;;;;;;;;4844875;29;20037;-83
2024/02/17 07:22:59;;;;;;;2.85;1.10;;;;;;;;;;4856442;29;20452;-84
2024/02/17 07:25:27;;;;;;;4.88;1.33;;;;;;;;;;4857148;29;20042;-83
2024/02/17 07:27:59;;;;;;;6.05;1.90;;;;;;;;;;4837497;29;20055;-84
2024/02/17 07:30:28;;;;;;;7.60;1.67;;;;;;;;;;4837852;29;20041;-83
2024/02/17 07:32:54;;;;;;;3.67;1.17;;;;;;;;;;4855976;29;20525;-86
2024/02/17 07:35:23;;;;;;;5.22;1.88;;;;;;;;;;4842139;29;20041;-84
2024/02/17 07:37:49;;;;;;;3.78;1.23;;;;;;;;;;4857801;29;20430;-81
2024/02/17 07:40:15;;;;;;;4.13;1.63;;;;;;;;;;4858809;29;20037;-81
2024/02/17 07:42:41;;;;;;;2.83;0.88;;;;;;;;;;4854194;29;20521;-80
2024/02/17 07:45:08;;;;;;;3.38;1.33;;;;;;;;;;4841853;29;20046;-80
2024/02/17 07:47:34;;;;;;;11.60;1.42;;;;;;;;;;4858191;29;20054;-82
2024/02/17 07:50:02;;;;;;;3.65;1.30;;;;;;;;;;4840293;29;20046;-81
2024/02/17 07:52:28;;;;;;;5.00;1.20;;;;;;;;;;4844264;29;20056;-81
2024/02/17 07:54:54;;;;;;;8.25;1.75;;;;;;;;;;4839796;29;20037;-82
2024/02/17 07:57:21;;;;;;;6.75;1.75;;;;;;;;;;4860420;29;20050;-84
2024/02/17 07:59:47;;;;;;;5.07;1.50;;;;;;;;;;4861861;29;20033;-82
2024/02/17 08:02:13;;;;;;;6.07;2.30;;;;;;;;;;4835621;29;20382;-83
2024/02/17 08:04:40;;;;;;;10.70;2.80;;;;;;;;;;4843683;29;20038;-82
2024/02/17 08:07:06;;;;;;;13.88;3.17;;;;;;;;;;4860237;29;20106;-82
2024/02/17 08:09:32;;;;;;;12.10;3.55;;;;;;;;;;4847570;29;20080;-81
2024/02/17 08:11:58;;;;;;;4.68;1.35;;;;;;;;;;4860069;29;20085;-81
2024/02/17 08:14:24;;;;;;;13.68;3.75;;;;;;;;;;4860626;29;20077;-81
2024/02/17 08:16:50;;;;;;;10.10;3.95;;;;;;;;;;4861065;29;20511;-82
2024/02/17 08:19:16;;;;;;;7.88;2.88;;;;;;;;;;4852915;29;20037;-80
2024/02/17 08:21:42;;;;;;;7.10;2.20;;;;;;;;;;4860617;29;20045;-82
2024/02/17 08:24:08;;;;;;;7.15;2.13;;;;;;;;;;4856159;29;20064;-80
2024/02/17 08:26:34;;;;;;;9.45;2.97;;;;;;;;;;4841464;29;20870;-81
2024/02/17 08:29:00;;;;;;;3.97;1.08;;;;;;;;;;4853254;29;20041;-81
2024/02/17 08:31:26;;;;;;;4.28;1.30;;;;;;;;;;4847318;29;20041;-83
2024/02/17 08:33:53;;;;;;;12.32;3.08;;;;;;;;;;4848830;29;20082;-81
2024/02/17 08:36:19;;;;;;;7.13;1.48;;;;;;;;;;4859480;29;20117;-82
2024/02/17 08:38:45;;;;;;;5.30;1.67;;;;;;;;;;4859915;29;20041;-81
2024/02/17 08:41:11;;;;;;;5.60;1.98;;;;;;;;;;4854317;29;20076;-81
2024/02/17 08:43:37;;;;;;;6.10;1.52;;;;;;;;;;4853561;29;20400;-81
2024/02/17 08:46:04;;;;;;;6.88;1.58;;;;;;;;;;4847281;29;20499;-82
2024/02/17 08:48:32;;;;;;;5.25;1.55;;;;;;;;;;4859874;29;20041;-81
2024/02/17 08:50:58;;;;;;;3.60;1.50;;;;;;;;;;4850052;29;20166;-78
2024/02/17 08:53:24;;;;;;;12.00;2.65;;;;;;;;;;4847258;29;20904;-83
2024/02/17 08:55:50;;;;;;;6.53;1.45;;;;;;;;;;4848454;29;20037;-83
2024/02/17 08:58:16;;;;;;;5.22;1.92;;;;;;;;;;4857608;29;20056;-81
2024/02/17 09:00:42;;;;;;;8.82;2.08;;;;;;;;;;4843373;29;20048;-81
2024/02/17 09:03:09;;;;;;;3.22;1.08;;;;;;;;;;4855826;29;20042;-80
2024/02/17 09:05:35;;;;;;;6.10;1.25;;;;;;;;;;4858604;29;20116;-81
2024/02/17 09:08:01;;;;;;;4.85;1.48;;;;;;;;;;4853188;29;20177;-81
2024/02/17 09:10:27;;;;;;;3.72;1.52;;;;;;;;;;4858120;29;20472;-81
2024/02/17 09:12:53;;;;;;;6.53;1.58;;;;;;;;;;4859031;29;20053;-81
2024/02/17 09:15:19;;;;;;;3.15;0.90;;;;;;;;;;4854634;29;20042;-81
2024/02/17 09:17:47;;;;;;;6.03;1.42;;;;;;;;;;4847581;29;20089;-81
2024/02/17 09:20:14;;;;;;;4.32;1.13;;;;;;;;;;4842101;29;20932;-80
2024/02/17 09:22:43;;;;;;;7.50;1.33;;;;;;;;;;4841231;29;20042;-85
2024/02/17 09:25:09;;;;;;;2.53;1.10;;;;;;;;;;4838224;29;20839;-83
2024/02/17 09:27:35;;;;;;;3.03;1.13;;;;;;;;;;4846895;29;20557;-82
2024/02/17 09:30:04;;;;;;;3.40;1.17;;;;;;;;;;4846890;29;20136;-83
2024/02/17 09:32:30;;;;;;;3.17;1.10;;;;;;;;;;4856273;29;20568;-82
2024/02/17 09:34:56;;;;;;;2.67;0.60;;;;;;;;;;4840726;29;20132;-84
2024/02/17 09:37:23;;;;;;;2.40;0.88;;;;;;;;;;4847982;29;20046;-83
2024/02/17 09:39:49;;;;;;;3.38;0.60;;;;;;;;;;4847028;29;20044;-83
2024/02/17 09:42:15;;;;;;;6.60;1.73;;;;;;;;;;4847510;29;21246;-85
2024/02/17 09:44:41;;;;;;;8.45;1.92;;;;;;;;;;4838468;29;20413;-85
2024/02/17 09:47:07;;;;;;;5.10;1.98;;;;;;;;;;4825050;29;20054;-85
2024/02/17 09:49:36;;;;;;;4.40;0.88;;;;;;;;;;4847472;29;20117;-84
2024/02/17 09:52:02;;;;;;;3.40;2.25;;;;;;;;;;4823869;29;20095;-84
2024/02/17 09:54:28;;;;;;;4.38;1.90;;;;;;;;;;4835828;29;20060;-85
2024/02/17 09:56:55;;;;;;;5.53;1.10;;;;;;;;;;4841731;29;20053;-85
2024/02/17 09:59:21;;;;;;;5.57;1.55;;;;;;;;;;4840375;29;20081;-85
2024/02/17 10:01:48;;;;;;;3.78;0.85;;;;;;;;;;4841745;29;20053;-84
2024/02/17 10:04:14;;;;;;;5.72;1.15;;;;;;;;;;4829182;29;20414;-85
2024/02/17 10:06:41;;;;;;;5.03;0.98;;;;;;;;;;4828902;29;20080;-85
2024/02/17 10:09:07;;;;;;;4.72;1.30;;;;;;;;;;4832195;29;20057;-85
2024/02/17 10:11:33;;;;;;;4.97;0.65;;;;;;;;;;4840915;29;20037;-85
2024/02/17 10:14:03;;;;;;;5.80;1.50;;;;;;;;;;4835090;29;20052;-85
2024/02/17 10:16:30;;;;;;;3.72;0.90;;;;;;;;;;4843865;29;20052;-85
2024/02/17 10:18:58;;;;;;;4.22;1.00;;;;;;;;;;4843871;29;20070;-85
2024/02/17 10:21:24;;;;;;;3.45;0.85;;;;;;;;;;4845222;29;20045;-85
2024/02/17 10:23:50;;;;;;;3.40;0.73;;;;;;;;;;4838667;29;20086;-85
2024/02/17 10:26:16;;;;;;;2.15;0.77;;;;;;;;;;4858609;29;20045;-85
2024/02/17 10:28:42;;;;;;;3.92;0.70;;;;;;;;;;4848797;29;20069;-84
2024/02/17 10:31:08;;;;;;;5.45;1.15;;;;;;;;;;4842999;29;20080;-85
2024/02/17 10:33:37;;;;;;;8.50;1.20;;;;;;;;;;4823259;29;20097;-85
2024/02/17 10:36:04;;;;;;;2.95;1.02;;;;;;;;;;4837177;29;20048;-85
2024/02/17 10:38:30;;;;;;;7.63;0.85;;;;;;;;;;4843802;29;20252;-85
2024/02/17 10:40:56;;;;;;;7.78;1.30;;;;;;;;;;4855437;29;20046;-85
2024/02/17 10:43:22;;;;;;;3.72;1.05;;;;;;;;;;4840342;29;20041;-85
2024/02/17 10:45:52;;;;;;;5.45;1.52;;;;;;;;;;4839550;29;20041;-84
2024/02/17 10:48:19;;;;;;;7.78;1.30;;;;;;;;;;4840950;29;20890;-84
2024/02/17 10:50:48;;;;;;;3.25;0.90;;;;;;;;;;4841305;29;20057;-85
2024/02/17 10:53:17;;;;;;;4.05;1.25;;;;;;;;;;4842459;29;20046;-85
2024/02/17 10:55:45;;;;;;;5.05;1.17;;;;;;;;;;4839718;29;20053;-85
2024/02/17 10:58:18;;;;;;;11.35;2.92;;;;;;;;;;4845634;29;20049;-85
2024/02/17 11:00:46;;;;;;;5.55;1.48;;;;;;;;;;4851611;29;20084;-84
2024/02/17 11:03:14;;;;;;;7.15;1.38;;;;;;;;;;4825250;29;20046;-85
2024/02/17 11:05:43;;;;;;;3.60;1.20;;;;;;;;;;4838639;29;20061;-85
2024/02/17 11:08:09;;;;;;;3.05;1.10;;;;;;;;;;4844690;29;20141;-85
2024/02/17 11:10:35;;;;;;;3.25;0.73;;;;;;;;;;4839461;29;20045;-85
2024/02/17 11:13:02;;;;;;;4.15;0.90;;;;;;;;;;4848047;29;20128;-84
2024/02/17 11:15:28;;;;;;;4.40;1.25;;;;;;;;;;4836695;29;20045;-85
2024/02/17 11:17:59;;;;;;;5.13;1.50;;;;;;;;;;4854134;29;20877;-85
2024/02/17 11:20:28;;;;;;;4.10;1.27;;;;;;;;;;4829979;29;20029;-85
2024/02/17 11:23:01;;;;;;;1.50;0.63;;;;;;;;;;4841308;29;20148;-85
2024/02/17 11:25:29;;;;;;;1.45;0.40;;;;;;;;;;4844663;29;20040;-85
2024/02/17 11:28:01;;;;;;;0.90;0.30;;;;;;;;;;4853878;29;20052;-84
2024/02/17 11:30:27;;;;;;;1.80;0.70;;;;;;;;;;4840038;29;20087;-84
2024/02/17 11:33:00;;;;;;;3.25;0.55;;;;;;;;;;4838513;29;20098;-84
2024/02/17 11:35:30;;;;;;;4.20;0.85;;;;;;;;;;4879238;29;20150;-82
2024/02/17 11:37:57;;;;;;;2.40;0.82;;;;;;;;;;4848038;29;20053;-84
2024/02/17 11:40:31;;;;;;;1.45;0.30;;;;;;;;;;4827266;29;20065;-85
2024/02/17 11:42:57;;;;;;;3.85;0.70;;;;;;;;;;4829447;29;20049;-84
2024/02/17 11:45:25;;;;;;;0.50;0.30;;;;;;;;;;4841818;29;20046;-83
2024/02/17 11:47:55;;;;;;;;;;;;;;;;;;4866167;29;20121;-84
2024/02/17 11:50:21;;;;;;;2.25;0.30;;;;;;;;;;4826715;29;19928;-84
2024/02/17 11:52:49;;;;;;;1.80;0.52;;;;;;;;;;4833538;29;20380;-85
2024/02/17 11:55:16;;;;;;;1.40;0.50;;;;;;;;;;4861961;29;20058;-86
2024/02/17 11:57:42;;;;;;;2.90;0.55;;;;;;;;;;4845088;29;20045;-85
2024/02/17 12:00:15;;;;;;;0.95;0.38;;;;;;;;;;4827790;29;20038;-84
2024/02/17 12:02:43;;;;;;;2.78;0.60;;;;;;;;;;4844666;29;20046;-83
2024/02/17 12:05:10;;;;;;;1.58;0.40;;;;;;;;;;4828275;29;20066;-83
2024/02/17 12:07:36;;;;;;;1.23;0.47;;;;;;;;;;4854530;29;20065;-83
2024/02/17 12:10:02;;;;;;;1.17;0.60;;;;;;;;;;4856808;29;20049;-83
2024/02/17 12:12:28;;;;;;;2.28;0.80;;;;;;;;;;4861756;29;20045;-84
2024/02/17 12:14:54;;;;;;;4.43;0.52;;;;;;;;;;4839495;29;20207;-84
2024/02/17 12:17:21;;;;;;;4.60;0.60;;;;;;;;;;4862183;29;20050;-84
2024/02/17 12:19:47;;;;;;;3.85;0.30;;;;;;;;;;4850164;29;20110;-84
2024/02/17 12:22:13;;;;;;;1.85;0.50;;;;;;;;;;4860144;29;20365;-84
2024/02/17 12:24:40;;;;;;;2.55;0.65;;;;;;;;;;4835421;29;20052;-84
2024/02/17 12:27:07;;;;;;;1.83;0.70;;;;;;;;;;4875349;29;20052;-84
2024/02/17 12:29:33;;;;;;;1.90;0.57;;;;;;;;;;4850015;29;20091;-85
2024/02/17 12:32:00;;;;;;;1.15;0.50;;;;;;;;;;4853646;29;20763;-84
2024/02/17 12:34:32;;;;;;;2.88;0.40;;;;;;;;;;4832411;29;20771;-84
2024/02/17 12:37:03;;;;;;;5.93;0.52;;;;;;;;;;4854397;29;20452;-85
2024/02/17 12:39:30;;;;;;;3.08;0.70;;;;;;;;;;4851423;29;20048;-85
2024/02/17 12:42:03;;;;;;;3.83;0.93;;;;;;;;;;4852666;29;20128;-84
2024/02/17 12:44:29;;;;;;;2.80;0.80;;;;;;;;;;4854680;29;20193;-85
2024/02/17 12:46:55;;;;;;;2.08;0.70;;;;;;;;;;4842304;29;20045;-85
2024/02/17 12:49:25;;;;;;;1.70;0.43;;;;;;;;;;4858588;29;20033;-84
2024/02/17 12:51:51;;;;;;;5.25;0.98;;;;;;;;;;4844638;29;20164;-84
2024/02/17 12:54:18;;;;;;;2.35;0.70;;;;;;;;;;4861331;29;20042;-84
2024/02/17 12:56:45;;;;;;;4.85;1.48;;;;;;;;;;4844224;29;20156;-84
2024/02/17 12:59:11;;;;;;;6.72;1.40;;;;;;;;;;4857454;29;20041;-84
2024/02/17 13:01:37;;;;;;;3.00;1.40;;;;;;;;;;4860347;29;20053;-85
2024/02/17 13:04:03;;;;;;;5.47;1.42;;;;;;;;;;4836321;29;20038;-85
2024/02/17 13:06:29;;;;;;;6.28;1.45;;;;;;;;;;4857167;29;20068;-84
2024/02/17 13:08:57;;;;;;;4.63;1.52;;;;;;;;;;4859621;29;20057;-85
2024/02/17 13:11:23;;;;;;;10.07;2.35;;;;;;;;;;4859200;29;20034;-84
2024/02/17 13:13:49;;;;;;;3.72;1.20;;;;;;;;;;4854821;29;20042;-85
2024/02/17 13:16:15;;;;;;;2.95;1.08;;;;;;;;;;4867558;29;20048;-84
2024/02/17 13:18:41;;;;;;;6.00;1.42;;;;;;;;;;4858403;29;20446;-85
2024/02/17 13:21:08;;;;;;;3.17;0.90;;;;;;;;;;4839581;29;20041;-85
2024/02/17 13:23:34;;;;;;;6.90;1.10;;;;;;;;;;4850626;29;20584;-84
2024/02/17 13:26:00;;;;;;;;;;;;;;;;;;4843556;29;20043;-85
2024/02/17 13:28:29;;;;;;;3.78;1.35;;;;;;;;;;4845029;29;20011;-85
2024/02/17 13:30:57;;;;;;;11.25;1.55;;;;;;;;;;4846391;29;20056;-84
2024/02/17 13:33:23;;;;;;;5.90;1.55;;;;;;;;;;4854982;29;20509;-84
2024/02/17 13:35:50;;;;;;;4.80;1.55;;;;;;;;;;4840785;29;20042;-84
2024/02/17 13:38:16;;;;;;;7.80;1.90;;;;;;;;;;4842106;29;20042;-83
2024/02/17 13:40:42;;;;;;;5.50;1.42;;;;;;;;;;4849602;29;20089;-84
2024/02/17 13:43:08;;;;;;;9.57;3.08;;;;;;;;;;4837714;29;20054;-82
2024/02/17 13:45:34;;;;;;;5.45;1.70;;;;;;;;;;4844698;29;20805;-83
2024/02/17 13:48:08;;;;;;;7.30;1.67;;;;;;;;;;4840256;29;20045;-82
2024/02/17 13:50:34;;;;;;;6.43;1.25;;;;;;;;;;4866825;29;20037;-82
2024/02/17 13:53:00;;;;;;;6.10;1.38;;;;;;;;;;4857958;29;20045;-81
2024/02/17 13:55:30;;;;;;;4.85;1.70;;;;;;;;;;4856479;29;20042;-81
2024/02/17 13:57:59;;;;;;;4.68;1.20;;;;;;;;;;4854215;29;20050;-80
2024/02/17 14:00:26;;;;;;;6.15;1.50;;;;;;;;;;4848826;29;20043;-81
2024/02/17 14:02:52;;;;;;;3.05;1.10;;;;;;;;;;4844603;29;20053;-80
2024/02/17 14:05:18;;;;;;;2.60;0.80;;;;;;;;;;4848969;29;20057;-81
2024/02/17 14:07:44;;;;;;;2.13;0.68;;;;;;;;;;4852659;29;20104;-81
2024/02/17 14:10:10;;;;;;;10.77;2.03;;;;;;;;;;4832821;29;20050;-80
2024/02/17 14:12:36;;;;;;;5.20;2.45;;;;;;;;;;4844336;29;20049;-81
2024/02/17 14:15:02;;;;;;;5.72;1.48;;;;;;;;;;4870232;29;20102;-81
2024/02/17 14:17:29;;;;;;;3.55;0.95;;;;;;;;;;4852015;29;20049;-81
2024/02/17 14:19:55;;;;;;;2.85;1.20;;;;;;;;;;4845838;29;20076;-81
2024/02/17 14:22:23;;;;;;;4.13;0.95;;;;;;;;;;4841231;29;20077;-82
2024/02/17 14:24:49;;;;;;;4.95;1.98;;;;;;;;;;4857914;29;20041;-82
2024/02/17 14:27:15;;;;;;;2.63;0.70;;;;;;;;;;4853472;29;20694;-83
2024/02/17 14:29:46;;;;;;;3.33;0.80;;;;;;;;;;4831172;29;20053;-83
2024/02/17 14:32:19;;;;;;;8.68;2.70;;;;;;;;;;4857782;29;20118;-84
2024/02/17 14:34:45;;;;;;;9.52;2.08;;;;;;;;;;4833684;29;20057;-82
2024/02/17 14:37:11;;;;;;;3.60;0.85;;;;;;;;;;4847128;29;20042;-82
2024/02/17 14:39:37;;;;;;;4.25;1.20;;;;;;;;;;4857676;29;20047;-83
2024/02/17 14:42:04;;;;;;;3.13;1.05;;;;;;;;;;4850361;29;20057;-83
2024/02/17 14:44:30;;;;;;;4.03;0.70;;;;;;;;;;4864276;29;20075;-83
2024/02/17 14:47:00;;;;;;;2.17;0.80;;;;;;;;;;4852188;29;20042;-83
2024/02/17 14:49:25;;;;;;;;;;;;;;;;;;4855791;29;20511;-83
2024/02/17 14:51:52;;;;;;;1.58;0.47;;;;;;;;;;4839722;29;19920;-82
2024/02/17 14:54:18;;;;;;;1.75;0.50;;;;;;;;;;4855538;29;20047;-82
2024/02/17 14:56:44;;;;;;;2.75;1.42;;;;;;;;;;4855389;29;20054;-84
2024/02/17 14:59:10;;;;;;;;;;;;;;;;;;4846873;29;20529;-81
2024/02/17 15:01:36;;;;;;;1.95;0.40;;;;;;;;;;4838106;29;19918;-80
2024/02/17 15:04:02;;;;;;;0.98;0.40;;;;;;;;;;4853995;29;20052;-81
2024/02/17 15:06:27;;;;;;;0.63;0.22;;;;;;;;;;4852065;29;20858;-84
2024/02/17 15:08:53;;;;;;;4.32;0.75;;;;;;;;;;4856247;29;20056;-84
2024/02/17 15:11:19;;;;;;;1.42;0.30;;;;;;;;;;4831137;29;20069;-84
2024/02/17 15:13:47;;;;;;;0.82;0.30;;;;;;;;;;4851514;29;20038;-85
2024/02/17 15:16:16;;;;;;;0.10;0.10;;;;;;;;;;4840163;29;20506;-85
2024/02/17 15:18:42;;;;;;;0.55;0.22;;;;;;;;;;4842388;29;20042;-84
2024/02/17 15:21:11;;;;;;;4.20;1.27;;;;;;;;;;4843542;29;20041;-84
2024/02/17 15:23:37;;;;;;;1.35;0.63;;;;;;;;;;4842783;29;20058;-85
2024/02/17 15:26:07;;;;;;;1.15;0.35;;;;;;;;;;4842745;29;20496;-83
2024/02/17 15:28:33;;;;;;;3.33;0.40;;;;;;;;;;4857741;29;20499;-84
2024/02/17 15:30:59;;;;;;;1.85;0.40;;;;;;;;;;4867644;29;20046;-82
2024/02/17 15:33:26;;;;;;;0.50;0.25;;;;;;;;;;4844010;29;20087;-82
2024/02/17 15:35:52;;;;;;;1.13;0.60;;;;;;;;;;4856011;29;20056;-83
2024/02/17 15:38:18;;;;;;;4.90;0.38;;;;;;;;;;4857229;29;20056;-82
2024/02/17 15:40:48;;;;;;;0.65;0.25;;;;;;;;;;4851147;29;20041;-83
2024/02/17 15:43:14;;;;;;;1.75;0.32;;;;;;;;;;4830641;29;20054;-83
2024/02/17 15:45:41;;;;;;;2.25;0.50;;;;;;;;;;4839769;29;20041;-83
2024/02/17 15:48:07;;;;;;;13.25;0.73;;;;;;;;;;4853522;29;20049;-83
2024/02/17 15:50:33;;;;;;;5.07;0.40;;;;;;;;;;4858064;29;20101;-83
2024/02/17 15:53:02;;;;;;;1.40;0.20;;;;;;;;;;4859216;29;20124;-83
2024/02/17 15:55:28;;;;;;;3.03;0.35;;;;;;;;;;4843388;29;20042;-83
2024/02/17 15:57:54;;;;;;;0.90;0.45;;;;;;;;;;4847886;29;20057;-83
2024/02/17 16:00:24;;;;;;;2.05;0.50;;;;;;;;;;4871129;29;20041;-83
2024/02/17 16:02:50;;;;;;;1.98;0.55;;;;;;;;;;4860784;29;20182;-83
2024/02/17 16:05:16;;;;;;;7.70;0.40;;;;;;;;;;4850273;29;20571;-84
2024/02/17 16:07:43;;;;;;;2.63;0.22;;;;;;;;;;4838455;29;20057;-87
2024/02/17 16:10:09;;;;;;;4.85;0.45;;;;;;;;;;4852334;29;20168;-86
2024/02/17 16:12:36;;;;;;;0.93;0.25;;;;;;;;;;4845964;29;20133;-85
2024/02/17 16:15:07;;;;;;;1.25;0.40;;;;;;;;;;4845425;29;20172;-86
2024/02/17 16:17:33;;;;;;;1.35;0.50;;;;;;;;;;4845079;29;20459;-85
2024/02/17 16:20:01;;;;;;;3.67;0.70;;;;;;;;;;4842814;29;20137;-86
2024/02/17 16:22:27;;;;;;;4.60;1.15;;;;;;;;;;4856682;29;20049;-84
2024/02/17 16:24:53;;;;;;;4.82;0.32;;;;;;;;;;4849642;29;20477;-84
2024/02/17 16:27:19;;;;;;;3.88;0.65;;;;;;;;;;4827839;29;20154;-86
2024/02/17 16:29:48;;;;;;;3.85;0.63;;;;;;;;;;4829959;29;20054;-86
2024/02/17 16:32:15;;;;;;;1.30;0.65;;;;;;;;;;4829036;29;20495;-86
2024/02/17 16:34:49;;;;;;;3.40;0.32;;;;;;;;;;4844351;29;20049;-86
2024/02/17 16:47:30;;;;;;;6.22;0.70;;;;;;;;;;1942888;24;24017;-83
2024/02/17 16:49:56;;;;;;;4.30;0.57;;;;;;;;;;4840561;29;20054;-83
2024/02/17 16:52:22;;;;;;;2.47;0.80;;;;;;;;;;4830926;29;20815;-85
2024/02/17 16:54:48;;;;;;;8.25;0.55;;;;;;;;;;4831245;29;20073;-85
2024/02/17 16:57:14;;;;;;;5.15;0.90;;;;;;;;;;4835469;29;20061;-83
2024/02/17 16:59:40;;;;;;;1.98;0.80;;;;;;;;;;4852535;29;20088;-84
2024/02/17 17:02:07;;;;;;;2.53;0.85;;;;;;;;;;4842526;29;20041;-84
2024/02/17 17:04:36;;;;;;;18.75;1.05;;;;;;;;;;4859933;29;20042;-84
2024/02/17 17:07:07;;;;;;;6.82;0.70;;;;;;;;;;4843980;29;20094;-83
2024/02/17 17:09:36;;;;;;;2.45;0.88;;;;;;;;;;4863454;29;20044;-83
2024/02/17 17:12:03;;;;;;;2.30;0.55;;;;;;;;;;4850205;29;20050;-85
2024/02/17 17:14:29;;;;;;;3.42;1.08;;;;;;;;;;4861082;29;20040;-83
2024/02/17 17:16:55;;;;;;;6.35;0.95;;;;;;;;;;4845962;29;20045;-84
2024/02/17 17:19:21;;;;;;;3.97;0.95;;;;;;;;;;4843696;29;20072;-86
2024/02/17 17:21:47;;;;;;;5.57;1.50;;;;;;;;;;4843162;29;20053;-88
2024/02/17 17:24:20;;;;;;;2.17;0.95;;;;;;;;;;4861513;29;20034;-87
2024/02/17 17:26:46;;;;;;;4.03;1.15;;;;;;;;;;4941580;24;20061;-87
2024/02/17 17:29:12;;;;;;;1.55;0.70;;;;;;;;;;4846578;24;20064;-84
2024/02/17 17:31:38;;;;;;;2.08;0.55;;;;;;;;;;4860862;29;20056;-84
2024/02/17 17:34:04;;;;;;;;;;;;;;;;;;4867522;29;20974;-89
2024/02/17 17:36:35;;;;;;;6.72;1.05;;;;;;;;;;4868036;29;19912;-90
2024/02/17 17:41:30;;;;;;;2.45;0.75;;;;;;;;;;4859448;29;20136;-89
2024/02/17 17:43:59;;;;;;;5.68;1.42;;;;;;;;;;4861443;29;20559;-90
2024/02/17 17:46:28;;;;;;;6.22;1.83;;;;;;;;;;4865781;24;20055;-86
2024/02/17 17:48:57;;;;;;;6.30;2.55;;;;;;;;;;4811957;29;20462;-87
2024/02/17 17:51:23;;;;;;;10.07;3.22;;;;;;;;;;4807822;29;20046;-86
2024/02/17 17:53:49;;;;;;;6.68;2.85;;;;;;;;;;4822115;29;20155;-84
2024/02/17 17:56:16;;;;;;;8.07;2.95;;;;;;;;;;4801195;29;20051;-84
2024/02/17 17:59:19;;;;;;;7.97;3.22;;;;;;;;;;4794115;29;20821;-85
2024/02/17 18:01:45;;;;;;;8.30;2.72;;;;;;;;;;4814789;29;20043;-85
2024/02/17 18:07:59;;;;;;;4.75;1.23;;;;;;;;;;4859883;29;20137;-88
2024/02/17 18:10:28;;;;;;;4.22;1.00;;;;;;;;;;4811913;29;20058;-87
2024/02/17 18:12:54;;;;;;;6.30;1.23;;;;;;;;;;4822790;29;20495;-88
2024/02/17 18:15:26;;;;;;;5.53;1.20;;;;;;;;;;4821331;29;20042;-87
2024/02/17 18:23:06;;;;;;;6.07;2.50;;;;;;;;;;5258937;24;20060;-86
2024/02/17 19:35:28;;;;;;;5.40;1.88;;;;;;;;;;4836963;29;20095;-86
2024/02/17 19:37:54;;;;;;;10.10;2.50;;;;;;;;;;4844566;29;20136;-85
2024/02/17 19:40:20;;;;;;;4.97;2.17;;;;;;;;;;4831041;29;20137;-87
2024/02/17 19:42:49;;;;;;;6.65;1.55;;;;;;;;;;4814660;29;20085;-83
2024/02/17 19:45:15;;;;;;;5.38;1.50;;;;;;;;;;4831467;29;20046;-85
2024/02/17 19:48:10;;;;;;;9.10;2.00;;;;;;;;;;4843846;29;20050;-87
2024/02/17 19:53:38;;;;;;;7.63;2.35;;;;;;;;;;4838049;29;20085;-85
2024/02/17 19:56:04;;;;;;;7.65;2.00;;;;;;;;;;4835210;29;20078;-86
2024/02/17 19:58:33;;;;;;;6.30;2.20;;;;;;;;;;4822728;29;20197;-86
2024/02/17 20:06:41;;;;;;;10.13;2.08;;;;;;;;;;4955170;23;20061;-86
2024/02/17 20:09:34;;;;;;;7.18;1.45;;;;;;;;;;5147972;24;20058;-86
2024/02/17 20:12:03;;;;;;;6.63;1.50;;;;;;;;;;4828727;29;20162;-85
2024/02/17 20:14:52;;;;;;;6.05;1.88;;;;;;;;;;4831794;29;20046;-87
2024/02/17 20:23:42;;;;;;;2.83;0.98;;;;;;;;;;4786340;29;20042;-89
